Time;durP1;ratioP1;P1;durP2;ratioP2;P2;SDS_P1;SDS_P2;PMS_P1;PMS_P2;Temp;Humidity;BMP_temperature;BMP_pressure;BME280_temperature;BME280_humidity;BME280_pressure;Samples;Min_cycle;Max_cycle;Signal;HPM_P1;HPM_P2
2022/06/19 00:00:12;;;;;;;8.88;2.42;;;;;;;18.54;72.13;100730.19;5115659;28;20047;-59
2022/06/19 00:02:39;;;;;;;7.78;2.47;;;;;;;18.38;72.18;100722.13;5115676;28;20023;-58
2022/06/19 00:05:05;;;;;;;9.25;2.20;;;;;;;18.34;72.19;100719.72;5115670;28;20418;-58
2022/06/19 00:07:32;;;;;;;10.13;2.20;;;;;;;18.28;72.69;100726.13;5115372;28;20088;-58
2022/06/19 00:09:57;;;;;;;9.70;2.50;;;;;;;18.19;72.72;100725.69;5115745;28;20031;-58
2022/06/19 00:12:22;;;;;;;6.68;2.00;;;;;;;18.16;72.94;100726.72;5110086;28;20032;-58
2022/06/19 00:14:48;;;;;;;10.18;2.10;;;;;;;18.05;73.17;100729.84;5095575;28;20044;-58
2022/06/19 00:17:14;;;;;;;10.00;2.30;;;;;;;18.05;73.17;100713.09;5095413;28;20454;-59
2022/06/19 00:19:39;;;;;;;8.38;2.38;;;;;;;18.09;72.63;100714.69;5094957;28;20031;-59
2022/06/19 00:22:05;;;;;;;7.30;2.00;;;;;;;18.05;72.98;100703.38;5095158;28;20032;-58
2022/06/19 00:24:30;;;;;;;8.68;2.80;;;;;;;18.02;72.68;100721.19;5094808;28;20027;-58
2022/06/19 00:26:56;;;;;;;11.82;2.38;;;;;;;17.98;72.37;100719.63;5094963;28;20334;-60
2022/06/19 00:29:21;;;;;;;8.38;2.17;;;;;;;18.00;72.88;100715.13;5095203;28;20044;-58
2022/06/19 00:31:47;;;;;;;6.50;2.05;;;;;;;18.01;72.53;100736.22;5095256;28;20032;-57
2022/06/19 00:34:12;;;;;;;14.23;2.33;;;;;;;17.94;72.02;100748.03;5098691;28;20115;-58
2022/06/19 00:36:37;;;;;;;8.70;2.10;;;;;;;17.91;72.27;100757.91;5098814;28;20328;-57
2022/06/19 00:39:03;;;;;;;9.65;2.33;;;;;;;17.79;72.71;100753.16;5099334;28;20402;-57
2022/06/19 00:41:34;;;;;;;8.43;2.10;;;;;;;17.82;72.58;100747.72;5098974;28;20027;-58
2022/06/19 00:44:11;;;;;;;7.60;2.20;;;;;;;17.79;72.27;100753.16;5098803;28;20350;-58
2022/06/19 00:46:42;;;;;;;9.07;2.20;;;;;;;17.63;72.72;100747.66;5099093;28;20031;-58
2022/06/19 00:49:14;;;;;;;10.87;2.50;;;;;;;17.59;72.56;100743.41;5099258;28;20032;-58
2022/06/19 00:51:39;;;;;;;;;;;;;;;17.56;72.23;100749.69;5099146;28;20032;-58
2022/06/19 00:54:06;;;;;;;9.23;2.40;;;;;;;17.43;72.20;100748.50;5098712;28;20334;-59
2022/06/19 00:56:32;;;;;;;9.52;2.65;;;;;;;17.45;71.39;100748.44;5098697;28;20567;-58
2022/06/19 00:58:57;;;;;;;7.80;2.25;;;;;;;17.21;71.69;100747.69;5098976;28;20161;-58
2022/06/19 01:01:25;;;;;;;11.63;2.45;;;;;;;17.12;71.67;100754.25;5098388;28;20059;-59
2022/06/19 01:04:09;;;;;;;10.10;2.40;;;;;;;17.00;72.04;100741.53;5098539;28;20456;-59
2022/06/19 01:06:35;;;;;;;11.57;2.92;;;;;;;17.07;70.57;100744.78;5098454;28;20119;-59
2022/06/19 01:09:01;;;;;;;8.15;2.30;;;;;;;16.90;71.09;100732.25;5098471;28;20112;-58
2022/06/19 01:11:37;;;;;;;7.43;2.10;;;;;;;16.94;71.25;100733.88;5098547;28;20043;-58
2022/06/19 01:14:05;;;;;;;9.00;2.20;;;;;;;16.90;70.37;100735.78;5098247;28;20047;-58
2022/06/19 01:16:31;;;;;;;10.75;2.97;;;;;;;16.78;70.00;100746.84;5098162;28;20055;-58
2022/06/19 01:18:59;;;;;;;14.82;2.50;;;;;;;16.77;70.32;100784.78;5098295;28;20423;-58
2022/06/19 01:21:50;;;;;;;12.15;2.47;;;;;;;16.79;70.43;100883.38;5098091;28;20514;-58
2022/06/19 01:24:32;;;;;;;11.98;2.60;;;;;;;16.88;69.01;100922.66;5098168;28;20493;-58
2022/06/19 01:27:01;;;;;;;11.05;2.40;;;;;;;16.89;68.23;100844.19;5097778;28;20516;-57
2022/06/19 01:29:32;;;;;;;11.68;2.53;;;;;;;16.82;67.95;100790.72;5097209;28;20435;-58
2022/06/19 01:32:01;;;;;;;11.35;2.17;;;;;;;16.66;68.56;100829.22;5097153;28;20032;-58
2022/06/19 01:34:35;;;;;;;9.57;2.28;;;;;;;16.64;68.14;100891.84;5097142;28;20038;-58
2022/06/19 01:37:15;;;;;;;11.13;2.30;;;;;;;16.57;67.50;100872.72;5096636;28;20032;-58
2022/06/19 01:39:47;;;;;;;11.65;2.20;;;;;;;16.56;67.34;100818.13;5096797;28;20136;-58
2022/06/19 01:42:13;;;;;;;12.15;2.70;;;;;;;16.42;65.46;100843.38;5096705;28;20035;-58
2022/06/19 01:44:41;;;;;;;12.05;2.42;;;;;;;16.39;65.94;100901.59;5096305;28;20176;-59
2022/06/19 01:47:07;;;;;;;9.60;2.15;;;;;;;16.47;65.63;100868.66;5096715;28;20078;-58
2022/06/19 01:49:34;;;;;;;14.57;2.72;;;;;;;16.45;65.48;100837.97;5096556;28;20063;-58
2022/06/19 01:52:00;;;;;;;11.73;2.10;;;;;;;16.33;64.81;100861.25;5096475;28;20049;-59
2022/06/19 01:54:30;;;;;;;10.73;2.40;;;;;;;16.27;65.18;100865.94;5096376;28;20073;-58
2022/06/19 01:56:57;;;;;;;11.80;2.20;;;;;;;16.22;64.62;100841.47;5096521;28;20035;-58
2022/06/19 01:59:26;;;;;;;9.27;2.38;;;;;;;16.18;63.83;100868.88;5096538;28;20028;-58
2022/06/19 02:01:53;;;;;;;12.40;2.42;;;;;;;16.09;63.10;100887.72;5095907;28;20117;-58
2022/06/19 02:04:20;;;;;;;12.00;2.22;;;;;;;15.90;62.75;100866.38;5096244;28;20043;-58
2022/06/19 02:06:48;;;;;;;10.75;1.80;;;;;;;15.77;63.06;100880.88;5096054;28;20343;-57
2022/06/19 02:09:17;;;;;;;9.70;2.50;;;;;;;15.73;62.75;100874.00;5096251;28;20169;-58
2022/06/19 02:11:42;;;;;;;8.48;1.85;;;;;;;15.70;62.28;100871.47;5096417;28;20036;-58
2022/06/19 02:14:10;;;;;;;10.95;2.20;;;;;;;15.76;60.94;100868.63;5096140;28;20043;-58
2022/06/19 02:16:40;;;;;;;10.90;2.08;;;;;;;15.61;61.37;100856.78;5096015;28;20035;-58
2022/06/19 02:19:06;;;;;;;8.75;2.00;;;;;;;15.66;60.26;100861.00;5096029;28;20032;-58
2022/06/19 02:21:40;;;;;;;11.43;2.45;;;;;;;15.59;60.81;100854.22;5096119;28;20452;-58
2022/06/19 02:24:07;;;;;;;8.38;1.83;;;;;;;15.58;60.15;100868.34;5096638;28;20035;-58
2022/06/19 02:26:36;;;;;;;12.60;2.22;;;;;;;15.63;60.33;100869.03;5096039;28;20027;-59
2022/06/19 02:29:03;;;;;;;10.38;2.22;;;;;;;15.62;59.40;100871.72;5060517;28;1026699;-58
2022/06/19 02:31:29;;;;;;;12.07;2.13;;;;;;;15.56;59.51;100878.09;5096371;28;20105;-58
2022/06/19 02:34:01;;;;;;;7.50;1.70;;;;;;;15.60;60.10;100900.78;5097430;28;20347;-58
2022/06/19 02:36:42;;;;;;;9.88;2.60;;;;;;;15.68;59.01;100891.75;5096725;28;20324;-58
2022/06/19 02:39:48;;;;;;;10.20;2.47;;;;;;;15.60;60.03;100900.78;5096880;28;20036;-58
2022/06/19 02:42:20;;;;;;;10.75;2.05;;;;;;;15.45;58.86;100872.25;5047055;28;20338;-58
2022/06/19 02:44:50;;;;;;;7.38;1.80;;;;;;;15.53;59.14;100901.88;5096958;28;20067;-58
2022/06/19 02:47:16;;;;;;;6.75;1.92;;;;;;;15.60;58.87;100894.63;5096844;28;20038;-58
2022/06/19 02:49:42;;;;;;;7.95;1.60;;;;;;;15.72;59.29;100883.69;5096633;28;20053;-57
2022/06/19 02:52:10;;;;;;;8.27;1.50;;;;;;;15.76;58.68;100876.53;5096335;28;20446;-59
2022/06/19 02:54:36;;;;;;;10.40;1.65;;;;;;;15.66;57.80;100881.25;5096062;28;20028;-59
2022/06/19 02:57:02;;;;;;;9.82;1.73;;;;;;;15.68;58.49;100881.22;5096181;28;20024;-59
2022/06/19 02:59:27;;;;;;;7.13;1.67;;;;;;;15.63;57.54;100920.94;5096355;28;20035;-57
2022/06/19 03:01:53;;;;;;;10.32;2.30;;;;;;;15.76;57.65;100980.28;5096578;28;20039;-59
2022/06/19 03:04:23;;;;;;;7.95;2.00;;;;;;;15.81;57.17;100994.19;5096518;28;20051;-58
2022/06/19 03:06:50;;;;;;;7.63;1.60;;;;;;;15.79;56.16;100958.22;5096108;28;20061;-58
2022/06/19 03:09:16;;;;;;;6.55;1.65;;;;;;;15.78;55.63;100915.13;5096307;28;20063;-58
2022/06/19 03:11:41;;;;;;;9.38;1.60;;;;;;;15.61;56.42;100904.28;5096004;28;20051;-57
2022/06/19 03:14:07;;;;;;;8.73;1.40;;;;;;;15.56;56.62;100911.50;5096289;28;20110;-57
2022/06/19 03:16:32;;;;;;;6.57;1.50;;;;;;;15.55;56.78;100910.66;5095377;28;20043;-57
2022/06/19 03:18:59;;;;;;;5.68;1.30;;;;;;;15.53;55.98;100909.78;5095970;28;20032;-58
2022/06/19 03:21:24;;;;;;;9.77;1.75;;;;;;;15.56;55.32;100880.72;5096050;28;20328;-58
2022/06/19 03:23:50;;;;;;;8.45;2.38;;;;;;;15.46;55.08;100862.56;5095800;28;20103;-58
2022/06/19 03:26:15;;;;;;;5.32;1.45;;;;;;;15.48;55.23;100853.69;5095804;28;20032;-57
2022/06/19 03:28:40;;;;;;;7.95;1.60;;;;;;;15.30;54.95;100863.06;5095586;28;20047;-58
2022/06/19 03:31:05;;;;;;;9.43;1.50;;;;;;;15.30;55.43;100880.66;5096098;28;20115;-58
2022/06/19 03:33:31;;;;;;;6.63;1.35;;;;;;;15.23;56.34;100898.47;5096283;28;20066;-58
2022/06/19 03:35:56;;;;;;;5.85;1.38;;;;;;;15.24;55.26;100875.56;5095579;28;20074;-58
2022/06/19 03:38:21;;;;;;;6.10;1.10;;;;;;;15.31;54.49;100871.84;5095564;28;20046;-58
2022/06/19 03:40:47;;;;;;;5.55;1.10;;;;;;;15.21;54.99;100852.84;5095445;28;20119;-58
2022/06/19 03:43:12;;;;;;;4.90;1.13;;;;;;;15.14;55.21;100869.75;5095755;28;20423;-58
2022/06/19 03:45:38;;;;;;;6.03;1.05;;;;;;;15.10;55.41;100844.38;5095901;28;20031;-59
2022/06/19 03:48:04;;;;;;;8.07;1.38;;;;;;;15.10;55.31;100794.31;5095611;28;20046;-58
2022/06/19 03:50:29;;;;;;;4.82;1.00;;;;;;;15.20;54.72;100822.09;5095873;28;20308;-58
2022/06/19 03:52:55;;;;;;;4.90;1.25;;;;;;;15.18;54.95;100846.78;5095266;28;20354;-58
2022/06/19 03:55:21;;;;;;;5.47;1.20;;;;;;;15.17;55.80;100921.50;5095428;28;20035;-57
2022/06/19 03:57:46;;;;;;;8.15;0.90;;;;;;;15.20;56.03;100979.41;5095328;28;20028;-59
2022/06/19 04:00:17;;;;;;;5.50;1.08;;;;;;;15.30;55.54;100965.03;5095601;28;20056;-58
2022/06/19 04:02:43;;;;;;;4.65;1.10;;;;;;;15.31;54.24;100882.38;5095395;28;20458;-57
2022/06/19 04:05:13;;;;;;;3.88;1.02;;;;;;;15.28;54.34;100885.13;5095169;28;20047;-57
2022/06/19 04:07:46;;;;;;;8.05;1.05;;;;;;;15.23;54.78;100906.38;5095065;28;20028;-57
2022/06/19 04:10:12;;;;;;;7.20;1.20;;;;;;;15.23;54.70;100882.66;5095241;28;20040;-58
2022/06/19 04:12:38;;;;;;;7.30;0.90;;;;;;;15.19;54.63;100849.38;5095450;28;20035;-57
2022/06/19 04:15:04;;;;;;;4.18;0.88;;;;;;;15.35;53.21;100840.97;5095220;28;20020;-58
2022/06/19 04:17:29;;;;;;;7.15;1.50;;;;;;;15.26;54.02;100803.44;5095208;28;20024;-59
2022/06/19 04:19:55;;;;;;;5.60;1.45;;;;;;;15.41;52.64;100775.69;5095123;28;20031;-58
2022/06/19 04:22:20;;;;;;;4.75;1.23;;;;;;;15.41;52.99;100762.50;5094965;28;20415;-57
2022/06/19 04:24:45;;;;;;;8.32;1.05;;;;;;;15.36;53.99;100747.75;5095072;28;20024;-59
2022/06/19 04:27:11;;;;;;;5.15;1.10;;;;;;;15.35;53.73;100731.09;5095336;28;20512;-58
2022/06/19 04:29:36;;;;;;;5.32;1.30;;;;;;;15.45;54.93;100721.91;5095004;28;20050;-59
2022/06/19 04:32:01;;;;;;;6.70;1.30;;;;;;;15.47;54.36;100714.81;5095314;28;20328;-58
2022/06/19 04:34:27;;;;;;;9.90;1.27;;;;;;;15.52;54.97;100714.66;5095449;28;20064;-58
2022/06/19 04:36:52;;;;;;;7.93;1.23;;;;;;;15.60;55.23;100710.84;5094972;28;20157;-59
2022/06/19 04:39:17;;;;;;;9.60;1.60;;;;;;;15.70;54.73;100715.81;5094854;28;20085;-58
2022/06/19 04:41:43;;;;;;;7.30;1.40;;;;;;;15.73;54.96;100719.22;5094821;28;20024;-59
2022/06/19 04:44:14;;;;;;;7.70;1.27;;;;;;;15.75;55.24;100717.38;5095006;28;20071;-58
2022/06/19 04:46:41;;;;;;;8.50;1.50;;;;;;;15.76;55.54;100719.06;5095316;28;20032;-58
2022/06/19 04:49:07;;;;;;;9.23;1.75;;;;;;;15.80;55.85;100707.50;5094672;28;20104;-59
2022/06/19 04:51:32;;;;;;;9.48;1.25;;;;;;;15.87;56.30;100689.66;5094713;28;20024;-58
2022/06/19 04:53:57;;;;;;;5.20;1.20;;;;;;;15.93;55.61;100650.69;5094828;28;20045;-58
2022/06/19 04:56:23;;;;;;;9.43;1.60;;;;;;;15.96;55.36;100655.00;5094867;28;20043;-58
2022/06/19 04:58:49;;;;;;;6.13;1.65;;;;;;;16.00;55.50;100649.53;5094866;28;20395;-57
2022/06/19 05:01:47;;;;;;;8.32;1.33;;;;;;;16.09;55.58;100655.41;5094642;28;20032;-57
2022/06/19 05:04:12;;;;;;;7.75;1.30;;;;;;;15.98;55.65;100648.72;5039136;28;20035;-56
2022/06/19 05:06:38;;;;;;;7.80;1.33;;;;;;;16.04;55.17;100671.41;5094908;28;20043;-58
2022/06/19 05:09:04;;;;;;;8.25;1.30;;;;;;;16.01;54.72;100690.00;5094942;28;20475;-58
2022/06/19 05:11:33;;;;;;;6.05;1.30;;;;;;;16.02;55.41;100731.31;5094689;28;20047;-58
2022/06/19 05:13:59;;;;;;;8.60;1.40;;;;;;;16.11;55.94;100748.56;5094752;28;20032;-57
2022/06/19 05:16:25;;;;;;;5.63;1.30;;;;;;;16.10;55.60;100745.09;5094515;28;20092;-58
2022/06/19 05:18:53;;;;;;;7.90;1.35;;;;;;;16.03;55.17;100725.13;5095813;28;20485;-57
2022/06/19 05:21:18;;;;;;;8.40;1.20;;;;;;;16.01;56.09;100716.38;5098257;28;20024;-57
2022/06/19 05:23:46;;;;;;;9.35;1.48;;;;;;;16.02;55.92;100733.94;5098491;28;20020;-59
2022/06/19 05:26:18;;;;;;;8.23;1.60;;;;;;;16.07;56.14;100739.06;5118747;28;20035;-59
2022/06/19 05:28:45;;;;;;;4.18;1.15;;;;;;;16.10;56.52;100762.72;5118236;28;20082;-58
2022/06/19 05:31:11;;;;;;;9.73;1.60;;;;;;;16.20;56.33;100783.41;5118427;28;20031;-57
2022/06/19 05:33:37;;;;;;;8.80;1.40;;;;;;;16.21;56.12;100790.44;5118459;28;20035;-58
2022/06/19 05:36:03;;;;;;;6.13;1.50;;;;;;;16.31;55.43;100796.22;5118353;28;20027;-57
2022/06/19 05:38:28;;;;;;;12.10;1.70;;;;;;;16.53;56.09;100817.38;5118406;28;20067;-58
2022/06/19 05:40:55;;;;;;;5.85;1.25;;;;;;;16.72;55.22;100836.94;5118169;28;20035;-58
2022/06/19 05:43:22;;;;;;;8.63;1.20;;;;;;;16.85;54.70;100854.03;5118325;28;20080;-58
2022/06/19 05:45:57;;;;;;;4.18;1.40;;;;;;;17.11;54.72;100860.09;5118595;28;20038;-59
2022/06/19 05:48:23;;;;;;;9.02;1.83;;;;;;;17.30;53.02;100866.34;5118255;28;20031;-58
2022/06/19 05:50:59;;;;;;;4.50;1.67;;;;;;;17.30;53.01;100846.06;5118216;28;20418;-58
2022/06/19 05:53:26;;;;;;;4.07;1.20;;;;;;;17.29;53.19;100830.25;5118080;28;20115;-57
2022/06/19 05:55:51;;;;;;;6.38;1.17;;;;;;;17.46;53.44;100843.63;5118245;28;20450;-57
2022/06/19 05:58:16;;;;;;;11.35;1.63;;;;;;;17.62;54.16;100879.13;5117937;28;20043;-58
2022/06/19 06:00:41;;;;;;;6.35;1.35;;;;;;;17.55;53.17;100885.56;5117844;28;20175;-58
2022/06/19 06:03:12;;;;;;;6.78;1.55;;;;;;;17.46;53.53;100883.31;5117954;28;20043;-58
2022/06/19 06:05:37;;;;;;;7.80;1.45;;;;;;;17.32;53.15;100888.28;5117886;28;20027;-58
2022/06/19 06:08:03;;;;;;;8.85;1.30;;;;;;;17.18;53.71;100890.63;5117901;28;20031;-58
2022/06/19 06:10:28;;;;;;;7.10;1.40;;;;;;;17.23;55.10;100920.41;5117821;28;20028;-58
2022/06/19 06:12:53;;;;;;;9.30;1.50;;;;;;;17.26;54.85;100941.47;5117630;28;20032;-57
2022/06/19 06:15:18;;;;;;;7.93;1.50;;;;;;;17.26;54.79;100949.38;5117778;28;20032;-58
2022/06/19 06:17:44;;;;;;;6.40;1.40;;;;;;;17.32;54.93;100950.00;5117400;28;20031;-58
2022/06/19 06:20:09;;;;;;;4.50;1.50;;;;;;;17.29;54.67;100938.69;5117564;28;20027;-57
2022/06/19 06:22:34;;;;;;;5.82;1.33;;;;;;;17.16;54.57;100937.44;5117540;28;20343;-58
2022/06/19 06:25:00;;;;;;;6.60;1.70;;;;;;;16.90;55.89;101013.34;5117413;28;20031;-57
2022/06/19 06:27:25;;;;;;;8.25;1.85;;;;;;;16.88;56.25;101038.94;5117364;28;20489;-57
2022/06/19 06:29:50;;;;;;;10.10;1.80;;;;;;;16.92;56.83;101045.00;5116548;28;20031;-57
2022/06/19 06:32:15;;;;;;;7.40;1.55;;;;;;;16.81;58.77;101069.16;5117364;28;20269;-58
2022/06/19 06:34:41;;;;;;;8.30;1.75;;;;;;;16.77;65.22;101112.50;5117253;28;20120;-57
2022/06/19 06:37:06;;;;;;;11.35;1.70;;;;;;;16.72;66.25;101154.06;5117820;28;20106;-57
2022/06/19 06:39:31;;;;;;;6.50;1.67;;;;;;;16.71;64.15;101178.75;5117365;28;20347;-57
2022/06/19 06:41:57;;;;;;;8.57;1.73;;;;;;;16.60;64.03;101155.31;5116963;28;20426;-57
2022/06/19 06:44:22;;;;;;;6.00;1.50;;;;;;;16.57;67.51;101183.59;5117035;28;20372;-58
2022/06/19 06:46:47;;;;;;;6.07;1.50;;;;;;;16.55;64.49;101182.78;5117754;28;20152;-58
2022/06/19 06:49:12;;;;;;;6.55;1.63;;;;;;;16.64;65.00;101171.94;5116951;28;20417;-57
2022/06/19 06:51:38;;;;;;;4.68;1.50;;;;;;;16.65;67.32;101171.03;5117246;28;20027;-58
2022/06/19 06:54:03;;;;;;;7.13;1.55;;;;;;;16.64;64.19;101156.09;5116932;28;20144;-56
2022/06/19 06:56:33;;;;;;;6.47;1.33;;;;;;;16.70;64.88;101140.03;5117004;28;20039;-57
2022/06/19 06:58:59;;;;;;;7.03;1.88;;;;;;;16.72;64.71;101132.91;5116659;28;20035;-57
2022/06/19 07:01:24;;;;;;;7.25;1.55;;;;;;;16.73;65.67;101129.38;5116785;28;20092;-57
2022/06/19 07:03:54;;;;;;;7.43;1.70;;;;;;;16.81;65.42;101116.72;5116716;28;20019;-58
2022/06/19 07:06:21;;;;;;;10.75;2.15;;;;;;;16.84;65.82;101121.91;5106322;28;20042;-58
2022/06/19 07:08:46;;;;;;;6.47;1.38;;;;;;;16.73;64.36;101108.22;5096138;28;20055;-57
2022/06/19 07:11:21;;;;;;;8.43;1.63;;;;;;;16.68;62.91;101128.66;5096184;28;20024;-57
2022/06/19 07:13:46;;;;;;;8.02;2.33;;;;;;;16.43;62.71;101135.66;5096177;28;20036;-58
2022/06/19 07:16:11;;;;;;;8.65;1.40;;;;;;;16.40;62.83;101170.94;5096110;28;20034;-57
2022/06/19 07:18:36;;;;;;;6.70;1.60;;;;;;;16.29;65.45;101192.41;5095929;28;20435;-58
2022/06/19 07:21:02;;;;;;;6.78;1.65;;;;;;;16.47;68.29;101182.16;5095823;28;20028;-57
2022/06/19 07:23:27;;;;;;;7.93;1.60;;;;;;;16.15;69.76;101177.91;5096115;28;20035;-58
2022/06/19 07:25:53;;;;;;;7.93;1.65;;;;;;;15.90;68.95;101146.13;5095943;28;20043;-58
2022/06/19 07:28:18;;;;;;;10.73;1.70;;;;;;;15.63;73.12;101118.78;5095727;28;20056;-58
2022/06/19 07:30:45;;;;;;;10.40;1.77;;;;;;;15.01;80.30;101095.06;5095910;28;20028;-58
2022/06/19 07:33:10;;;;;;;11.20;2.17;;;;;;;14.41;86.62;101060.66;5095775;28;20328;-58
2022/06/19 07:35:36;;;;;;;11.73;2.53;;;;;;;13.96;90.16;101045.09;5095689;28;20035;-59
2022/06/19 07:38:01;;;;;;;14.80;2.33;;;;;;;13.86;94.67;101033.03;5095760;28;20024;-59
2022/06/19 07:40:27;;;;;;;10.48;1.88;;;;;;;13.60;95.92;101031.03;5095934;28;20388;-59
2022/06/19 07:42:52;;;;;;;9.32;1.75;;;;;;;13.21;97.10;100996.84;5095228;28;20032;-59
2022/06/19 07:45:17;;;;;;;9.65;2.05;;;;;;;13.30;98.67;100994.94;5095692;28;20058;-59
2022/06/19 07:50:27;;;;;;;14.93;2.58;;;;;;;13.01;100.00;100975.34;5094891;28;20082;-58
2022/06/19 07:52:54;;;;;;;11.20;2.55;;;;;;;13.29;100.00;101057.16;5095618;28;20032;-59
2022/06/19 07:55:22;;;;;;;13.77;2.65;;;;;;;13.38;100.00;101106.88;5095651;28;20039;-59
2022/06/19 07:57:48;;;;;;;12.60;2.28;;;;;;;13.40;100.00;101133.13;5095418;28;20388;-59
2022/06/19 08:00:22;;;;;;;13.77;2.42;;;;;;;13.54;100.00;101152.13;5095472;28;20020;-58
2022/06/19 08:02:50;;;;;;;11.90;2.20;;;;;;;13.69;100.00;101145.66;5094797;28;20039;-58
2022/06/19 08:05:17;;;;;;;12.77;2.75;;;;;;;13.59;100.00;101102.94;5095207;28;20054;-59
2022/06/19 08:07:42;;;;;;;12.93;2.65;;;;;;;13.45;100.00;101076.09;5095267;28;20103;-59
2022/06/19 08:10:13;;;;;;;14.50;2.38;;;;;;;13.48;100.00;101087.41;5095253;28;20113;-59
2022/06/19 08:12:39;;;;;;;16.95;3.10;;;;;;;13.56;100.00;101048.63;5095483;28;20036;-60
2022/06/19 08:15:05;;;;;;;14.93;2.30;;;;;;;13.54;100.00;101047.81;5095222;28;20035;-59
2022/06/19 08:17:30;;;;;;;15.05;2.63;;;;;;;13.58;100.00;101119.59;5095155;28;20035;-60
2022/06/19 08:19:56;;;;;;;12.55;2.70;;;;;;;13.70;100.00;101113.22;5094851;28;20028;-59
2022/06/19 08:22:21;;;;;;;18.17;3.08;;;;;;;13.76;100.00;101068.38;5094891;28;20331;-60
2022/06/19 08:24:46;;;;;;;12.52;3.10;;;;;;;13.70;100.00;101036.94;5095031;28;20088;-60
2022/06/19 08:27:11;;;;;;;13.77;2.35;;;;;;;13.46;100.00;101015.59;5095014;28;20023;-60
2022/06/19 08:29:37;;;;;;;15.60;3.17;;;;;;;13.64;100.00;101016.94;5095229;28;20134;-59
2022/06/19 08:32:03;;;;;;;14.73;3.33;;;;;;;13.76;100.00;101027.16;5094789;28;20144;-60
2022/06/19 08:34:28;;;;;;;17.02;3.67;;;;;;;13.99;100.00;101018.72;5094856;28;20073;-59
2022/06/19 08:36:54;;;;;;;12.52;3.67;;;;;;;13.98;100.00;101011.72;5094662;28;20066;-60
2022/06/19 08:39:20;;;;;;;13.70;3.60;;;;;;;13.87;100.00;100997.94;5095162;28;20040;-60
2022/06/19 08:42:01;;;;;;;16.35;3.65;;;;;;;13.68;100.00;100983.53;5095061;28;20422;-60
2022/06/19 08:44:54;;;;;;;12.35;3.38;;;;;;;13.66;100.00;100985.34;5095205;28;20500;-60
2022/06/19 08:47:37;;;;;;;14.05;3.40;;;;;;;13.56;100.00;100930.31;5094829;28;20081;-59
2022/06/19 08:50:08;;;;;;;16.42;3.58;;;;;;;13.64;100.00;100918.75;5094843;28;20035;-59
2022/06/19 08:52:59;;;;;;;11.20;3.27;;;;;;;13.66;100.00;100940.63;5094967;28;20081;-59
2022/06/19 08:55:27;;;;;;;16.50;4.40;;;;;;;13.78;100.00;100966.63;5098611;28;20024;-59
2022/06/19 08:58:11;;;;;;;14.05;3.70;;;;;;;13.86;100.00;100975.16;5098667;28;20020;-58
2022/06/19 09:00:49;;;;;;;13.52;3.60;;;;;;;13.75;100.00;100936.00;5098835;28;20342;-59
2022/06/19 09:05:36;;;;;;;17.08;3.70;;;;;;;13.94;100.00;100974.09;5098577;28;20055;-59
2022/06/19 09:06:25;;;;;;;15.80;3.90;;;;;;;13.92;100.00;100989.03;5098593;28;20488;-58
2022/06/19 09:09:13;;;;;;;13.27;4.00;;;;;;;13.97;100.00;101012.63;5098560;28;20346;-59
2022/06/19 09:11:41;;;;;;;16.75;3.60;;;;;;;14.17;100.00;101027.91;5048729;28;20131;-59
2022/06/19 09:14:15;;;;;;;13.82;4.38;;;;;;;14.23;100.00;101054.94;5098517;28;20030;-58
2022/06/19 09:16:57;;;;;;;12.60;3.38;;;;;;;14.52;100.00;101084.97;5098515;28;20327;-59
2022/06/19 09:19:49;;;;;;;11.48;3.05;;;;;;;14.77;100.00;101107.13;5098382;28;20028;-59
2022/06/19 09:22:44;;;;;;;10.90;3.60;;;;;;;14.67;100.00;101112.69;5098230;28;20107;-59
2022/06/19 09:25:44;;;;;;;11.82;3.10;;;;;;;14.82;100.00;101107.88;5098312;28;20427;-58
2022/06/19 09:28:38;;;;;;;11.77;2.53;;;;;;;14.77;100.00;101096.59;5098068;28;20347;-59
2022/06/19 09:31:11;;;;;;;12.82;3.05;;;;;;;14.57;100.00;101096.22;5097495;28;20043;-58
2022/06/19 09:33:43;;;;;;;8.52;2.78;;;;;;;14.53;100.00;101082.31;5098292;28;20024;-59
2022/06/19 09:36:19;;;;;;;10.63;2.90;;;;;;;14.70;100.00;101079.22;5098291;28;20066;-58
2022/06/19 09:38:56;;;;;;;10.43;2.80;;;;;;;14.84;100.00;101066.53;5097848;28;20032;-60
2022/06/19 09:41:29;;;;;;;16.48;3.30;;;;;;;14.98;100.00;101048.56;5098031;28;20020;-58
2022/06/19 09:44:39;;;;;;;10.68;2.67;;;;;;;15.09;100.00;101039.47;5097754;28;20046;-59
2022/06/19 09:47:14;;;;;;;9.90;2.80;;;;;;;15.20;98.12;101032.16;5097708;28;20059;-60
2022/06/19 09:49:47;;;;;;;10.55;3.17;;;;;;;15.45;98.55;100996.19;5097725;28;20035;-59
2022/06/19 09:52:20;;;;;;;10.90;3.03;;;;;;;15.50;96.43;101007.47;5098021;28;20085;-59
2022/06/19 09:54:51;;;;;;;9.68;2.55;;;;;;;15.33;94.17;101017.69;5097458;28;20111;-59
2022/06/19 09:57:43;;;;;;;12.48;3.13;;;;;;;15.49;97.48;101018.06;5097752;28;20032;-60
2022/06/19 10:00:12;;;;;;;8.77;2.55;;;;;;;15.73;92.00;100998.88;5097442;28;20489;-58
2022/06/19 10:03:21;;;;;;;9.93;2.75;;;;;;;15.72;92.90;100983.97;5097320;28;20036;-59
2022/06/19 10:05:51;;;;;;;11.25;3.05;;;;;;;16.25;92.28;100973.38;5085876;28;20040;-58
2022/06/19 10:08:44;;;;;;;12.30;3.10;;;;;;;16.30;87.88;100969.66;5097054;28;20399;-52
2022/06/19 10:11:14;;;;;;;9.27;3.00;;;;;;;16.67;86.39;100963.94;5116175;28;20476;-59
2022/06/19 10:13:48;;;;;;;9.40;2.83;;;;;;;17.03;85.52;100937.91;5111924;28;20404;-60
2022/06/19 10:16:28;;;;;;;11.55;3.60;;;;;;;17.19;83.39;100937.31;5110740;28;20027;-58
2022/06/19 10:18:55;;;;;;;11.27;2.92;;;;;;;17.45;87.04;100938.94;5117511;28;20080;-58
2022/06/19 10:24:18;;;;;;;6.90;2.00;;;;;;;17.31;78.37;100942.16;5114600;28;20053;-57
2022/06/19 10:26:49;;;;;;;6.40;1.85;;;;;;;17.21;76.80;100932.84;5117036;28;20046;-59
2022/06/19 10:29:33;;;;;;;8.00;2.28;;;;;;;17.31;75.51;100934.22;5117031;28;20054;-59
2022/06/19 10:32:19;;;;;;;8.02;2.20;;;;;;;17.45;78.06;100952.16;5117606;28;20099;-60
2022/06/19 10:35:02;;;;;;;8.27;2.00;;;;;;;17.42;76.61;100966.38;5117195;28;20454;-59
2022/06/19 10:37:53;;;;;;;7.10;2.45;;;;;;;17.70;75.44;100976.72;5117436;28;20028;-58
2022/06/19 10:40:46;;;;;;;9.55;2.15;;;;;;;17.60;75.60;100967.44;5117002;28;20046;-58
2022/06/19 10:43:52;;;;;;;8.18;2.35;;;;;;;17.84;74.39;100952.34;5117352;28;20043;-60
2022/06/19 10:46:17;;;;;;;8.25;1.90;;;;;;;18.14;73.68;100944.91;5116762;28;20042;-57
2022/06/19 10:49:11;;;;;;;6.82;1.65;;;;;;;18.38;70.87;100959.72;5116928;28;20466;-58
2022/06/19 10:51:44;;;;;;;6.10;1.60;;;;;;;18.55;69.59;100953.66;5116913;28;20038;-58
2022/06/19 10:54:41;;;;;;;5.30;1.70;;;;;;;18.97;71.12;100970.34;5116572;28;20036;-61
2022/06/19 10:57:24;;;;;;;6.07;1.70;;;;;;;19.07;67.84;100991.97;5095270;28;20108;-59
2022/06/19 10:59:50;;;;;;;5.47;1.58;;;;;;;19.07;63.70;101002.59;5116764;28;20063;-59
2022/06/19 11:05:28;;;;;;;5.78;1.52;;;;;;;19.52;64.06;101004.06;5116555;28;20140;-57
2022/06/19 11:07:54;;;;;;;5.32;1.60;;;;;;;19.61;64.03;101008.91;5116485;28;20051;-58
2022/06/19 11:10:46;;;;;;;6.50;1.85;;;;;;;19.75;67.09;100991.38;5116330;28;20067;-59
2022/06/19 11:13:12;;;;;;;5.75;1.75;;;;;;;19.81;59.57;100993.75;5116808;28;20031;-59
2022/06/19 11:15:41;;;;;;;4.47;1.48;;;;;;;19.76;60.74;100998.41;5116103;28;20040;-57
2022/06/19 11:18:11;;;;;;;4.30;1.60;;;;;;;19.93;59.70;101017.97;5116001;28;20024;-59
2022/06/19 11:20:37;;;;;;;6.43;1.58;;;;;;;19.98;60.46;101043.38;5116384;28;20460;-60
2022/06/19 11:23:18;;;;;;;3.67;1.45;;;;;;;19.78;61.87;101046.16;5116365;28;20110;-59
2022/06/19 11:26:06;;;;;;;5.57;1.50;;;;;;;19.74;61.20;101041.94;5116619;28;20034;-58
2022/06/19 11:28:53;;;;;;;6.50;1.60;;;;;;;19.85;63.39;101036.09;5116231;28;20043;-59
2022/06/19 11:31:28;;;;;;;6.15;1.70;;;;;;;20.09;60.18;101026.91;5116091;28;20353;-58
2022/06/19 11:33:59;;;;;;;7.43;1.60;;;;;;;20.29;58.75;101040.06;5116016;28;20062;-58
2022/06/19 11:36:29;;;;;;;4.93;1.63;;;;;;;20.48;59.99;101040.88;5116270;28;20054;-58
2022/06/19 11:38:55;;;;;;;4.30;1.40;;;;;;;20.60;59.65;101044.72;5115741;28;20114;-58
2022/06/19 11:41:20;;;;;;;4.10;1.50;;;;;;;20.72;59.68;101029.91;5115900;28;20066;-58
2022/06/19 11:43:58;;;;;;;6.57;2.03;;;;;;;20.97;58.40;101026.78;5115920;28;20078;-59